Time Latitude Longitude Accuracy (66% radius in meters) Altitude (meters) Speed (km/hour) Bearing (degrees) Battery (%) GPS flag
10:43:27 53.017100 36.150820 3.5999999046326 -8.3 0 182.53999328613 66 1 delete
10:43:18 53.017125 36.150820 3.5 -8.8 0.2486108392477 192.41000366211 66 1 delete
10:43:14 53.017165 36.150843 3.5999999046326 -12.9 0 295.01998901367 66 1 delete
10:43:00 53.017187 36.150853 3.4000000953674 -14.3 0.69487500190735 31.719999313354 66 1 delete
10:42:50 53.017253 36.150830 3.4000000953674 -18.3 1.1169471740723 141.44000244141 66 1 delete
10:42:49 53.017260 36.150820 3.5 -18.5 1.166875243187 142.53999328613 66 1 delete
10:42:38 53.017337 36.150762 3.4000000953674 -20.4 1.3660727739334 151.07000732422 66 1 delete
10:42:37 53.017345 36.150757 3.4000000953674 -20.5 1.409309387207 157.47999572754 66 1 delete
10:42:28 53.017427 36.150705 3.4000000953674 -22.1 1.5415930747986 146.89999389648 66 1 delete
10:42:26 53.017445 36.150695 3.4000000953674 -22.9 1.544681429863 140 66 1 delete
10:42:19 53.017513 36.150660 3.4000000953674 -25 1.625492811203 150.44999694824 66 1 delete
10:42:14 53.017572 36.150628 3.4000000953674 -25.8 1.5935800075531 138.88999938965 66 1 delete
10:42:11 53.017608 36.150615 3.4000000953674 -26.4 1.5807119607925 158.58999633789 66 1 delete
10:42:03 53.017707 36.150607 3.4000000953674 -28.4 1.5735058784485 170.41000366211 66 1 delete
10:41:57 53.017793 36.150675 3.4000000953674 -29.6 1.4993858337402 209.21000671387 66 1 delete
10:41:51 53.017880 36.150753 3.4000000953674 -30 1.6033596992493 220.88999938965 66 1 delete
10:41:46 53.017952 36.150827 3.5 -29.8 1.6244633197784 228.44000244141 66 1 delete
10:41:45 53.017967 36.150842 3.5 -29.8 1.6507141590118 222.33000183105 66 1 delete
10:41:40 53.018045 36.150942 3.5 -30.7 1.6579202413559 229.83999633789 66 1 delete
10:41:35 53.018112 36.151048 3.5999999046326 -31.9 1.7165986299515 257.48999023438 66 1 delete
10:41:34 53.018123 36.151072 3.5999999046326 -32.2 1.706304192543 256.26000976562 66 1 delete
10:41:30 53.018195 36.151173 3.7000000476837 -33.9 1.6285811662674 246.39999389648 66 1 delete
10:41:27 53.018290 36.151212 3.7999999523163 -36.1 1.5570347309113 244.69999694824 66 1 delete
10:41:24 53.018415 36.151237 3.9000000953674 -38.8 1.563726067543 237.92999267578 66 1 delete
10:41:22 53.018518 36.151237 3.9000000953674 -40.7 1.6069628000259 231.07000732422 66 1 delete
10:41:20 53.018617 36.151232 4 -42.1 1.598212480545 232.19999694824 66 1 delete
10:41:17 53.018718 36.151240 4.0999999046326 -44.2 1.6069628000259 230.78999328613 66 1 delete
10:41:14 53.018837 36.151243 4.1999998092651 -47.1 1.556519985199 228.44999694824 66 1 delete
10:41:13 53.018883 36.151240 4.1999998092651 -48 1.5276955366135 235.61000061035 66 1 delete
10:41:09 53.018935 36.151298 4.1999998092651 -49.5 1.5585788488388 234.80999755859 66 1 delete
10:41:03 53.019025 36.151380 4.3000001907349 -51.6 1.5709322690964 242.11999511719 66 1 delete
10:41:02 53.019040 36.151400 4.3000001907349 -52.1 1.5534316301346 253.36000061035 66 1 delete
10:40:58 53.019090 36.151483 4.4000000953674 -53.3 1.431957244873 247.5 66 1 delete
10:40:52 53.019133 36.151620 4.4000000953674 -55 1.2296713590622 243.46000671387 66 1 delete
10:40:51 53.019142 36.151637 4.4000000953674 -54.9 1.1704783439636 246.36999511719 66 1 delete
10:40:45 53.019197 36.151738 4.4000000953674 -54.7 0.54148775339127 224.66999816895 66 1 delete
10:40:38 53.019283 36.151783 4.4000000953674 -55.1 0 285.69000244141 66 1 delete
10:40:25 53.019283 36.151783 4.4000000953674 -55.1 0 262.07000732422 66 1 delete
10:40:23 53.019287 36.151790 4.4000000953674 -55.1 0.12816582620144 202.82000732422 66 1 delete
10:40:13 53.019382 36.151817 4.4000000953674 -55.5 0 71.349998474121 66 1 delete
10:40:01 53.019382 36.151817 4.4000000953674 -55.5 0 71.349998474121 66 1 delete
10:39:50 53.019382 36.151817 4.4000000953674 -55.5 0 71.349998474121 66 1 delete
10:39:38 53.019382 36.151817 4.4000000953674 -55.5 0 71.349998474121 66 1 delete
10:39:27 53.019385 36.151818 4.4000000953674 -55.6 0.65060889720917 41.930000305176 66 1 delete
10:39:20 53.019375 36.151840 4.4000000953674 -55.2 0.96973669528961 298.14001464844 66 1 delete
10:39:16 53.019380 36.151902 4.4000000953674 -54.8 0.78495138883591 274.92999267578 66 1 delete
10:39:10 53.019402 36.151985 4.4000000953674 -54.5 0.35361418128014 253.08999633789 66 1 delete
10:39:04 53.019450 36.152030 4.4000000953674 -54.3 0 332.05999755859 66 1 delete
10:38:52 53.019465 36.152062 4.5 -53.8 0.53942888975143 341.16000366211 66 1 delete
10:38:41 53.019492 36.152152 4.5 -52.3 0.61663722991943 350.20001220703 66 1 delete